sensor_id;sensor_type;location;lat;lon;timestamp;temperature;humidity
38784;DHT22;24531;45.502;12.238;2023-03-01T00:01:05;8.00;79.70
38784;DHT22;24531;45.502;12.238;2023-03-01T00:03:32;8.00;79.80
38784;DHT22;24531;45.502;12.238;2023-03-01T00:05:58;9.40;80.60
38784;DHT22;24531;45.502;12.238;2023-03-01T00:08:25;8.10;79.90
38784;DHT22;24531;45.502;12.238;2023-03-01T00:11:21;8.10;79.70
38784;DHT22;24531;45.502;12.238;2023-03-01T00:13:49;8.20;79.70
38784;DHT22;24531;45.502;12.238;2023-03-01T00:16:24;8.20;79.70
38784;DHT22;24531;45.502;12.238;2023-03-01T00:18:50;8.20;79.50
38784;DHT22;24531;45.502;12.238;2023-03-01T00:21:17;8.70;79.90
38784;DHT22;24531;45.502;12.238;2023-03-01T00:23:43;8.20;79.50
38784;DHT22;24531;45.502;12.238;2023-03-01T00:26:12;8.20;79.60
38784;DHT22;24531;45.502;12.238;2023-03-01T00:28:38;8.20;79.50
38784;DHT22;24531;45.502;12.238;2023-03-01T00:31:05;8.20;79.70
38784;DHT22;24531;45.502;12.238;2023-03-01T00:33:31;8.10;79.50
38784;DHT22;24531;45.502;12.238;2023-03-01T00:36:00;8.20;79.70
38784;DHT22;24531;45.502;12.238;2023-03-01T00:38:26;8.20;79.60
38784;DHT22;24531;45.502;12.238;2023-03-01T00:40:53;8.10;79.60
38784;DHT22;24531;45.502;12.238;2023-03-01T00:43:19;8.20;79.70
38784;DHT22;24531;45.502;12.238;2023-03-01T00:45:44;10.20;80.80
38784;DHT22;24531;45.502;12.238;2023-03-01T00:48:10;9.40;80.40
38784;DHT22;24531;45.502;12.238;2023-03-01T00:50:35;8.20;79.60
38784;DHT22;24531;45.502;12.238;2023-03-01T00:53:01;8.20;79.70
38784;DHT22;24531;45.502;12.238;2023-03-01T00:55:27;9.80;80.60
38784;DHT22;24531;45.502;12.238;2023-03-01T00:57:53;8.20;79.50
38784;DHT22;24531;45.502;12.238;2023-03-01T01:00:19;8.20;79.60
38784;DHT22;24531;45.502;12.238;2023-03-01T01:02:45;8.30;79.60
38784;DHT22;24531;45.502;12.238;2023-03-01T01:05:11;8.30;79.60
38784;DHT22;24531;45.502;12.238;2023-03-01T01:07:37;8.60;79.80
38784;DHT22;24531;45.502;12.238;2023-03-01T01:10:03;8.30;79.40
38784;DHT22;24531;45.502;12.238;2023-03-01T01:12:28;8.40;79.50
38784;DHT22;24531;45.502;12.238;2023-03-01T01:14:54;8.40;79.50
38784;DHT22;24531;45.502;12.238;2023-03-01T01:17:20;8.40;79.60
38784;DHT22;24531;45.502;12.238;2023-03-01T01:19:46;8.40;79.60
38784;DHT22;24531;45.502;12.238;2023-03-01T01:22:11;8.40;79.50
38784;DHT22;24531;45.502;12.238;2023-03-01T01:24:37;9.30;79.90
38784;DHT22;24531;45.502;12.238;2023-03-01T01:27:03;9.20;80.00
38784;DHT22;24531;45.502;12.238;2023-03-01T01:29:28;9.40;79.80
38784;DHT22;24531;45.502;12.238;2023-03-01T01:31:54;8.50;79.40
38784;DHT22;24531;45.502;12.238;2023-03-01T01:34:21;8.50;79.30
38784;DHT22;24531;45.502;12.238;2023-03-01T01:36:52;8.50;79.80
38784;DHT22;24531;45.502;12.238;2023-03-01T01:39:20;8.50;79.30
38784;DHT22;24531;45.502;12.238;2023-03-01T01:41:45;8.50;79.40
38784;DHT22;24531;45.502;12.238;2023-03-01T01:44:23;9.20;79.80
38784;DHT22;24531;45.502;12.238;2023-03-01T01:47:01;8.50;79.40
38784;DHT22;24531;45.502;12.238;2023-03-01T01:52:20;8.60;79.50
38784;DHT22;24531;45.502;12.238;2023-03-01T01:54:55;8.60;79.50
38784;DHT22;24531;45.502;12.238;2023-03-01T01:57:36;8.60;79.30
38784;DHT22;24531;45.502;12.238;2023-03-01T02:00:10;8.60;79.20
38784;DHT22;24531;45.502;12.238;2023-03-01T02:02:39;8.60;79.20
38784;DHT22;24531;45.502;12.238;2023-03-01T02:07:54;8.60;79.20
38784;DHT22;24531;45.502;12.238;2023-03-01T02:10:21;8.60;79.10
38784;DHT22;24531;45.502;12.238;2023-03-01T02:12:47;8.60;79.10
38784;DHT22;24531;45.502;12.238;2023-03-01T02:15:13;8.60;79.20
38784;DHT22;24531;45.502;12.238;2023-03-01T02:17:39;8.70;79.30
38784;DHT22;24531;45.502;12.238;2023-03-01T02:22:47;8.70;79.10
38784;DHT22;24531;45.502;12.238;2023-03-01T02:30:23;8.80;79.10
38784;DHT22;24531;45.502;12.238;2023-03-01T02:32:51;8.70;78.90
38784;DHT22;24531;45.502;12.238;2023-03-01T02:35:18;8.70;79.10
38784;DHT22;24531;45.502;12.238;2023-03-01T02:37:45;8.70;79.10
38784;DHT22;24531;45.502;12.238;2023-03-01T02:40:15;9.10;79.20
38784;DHT22;24531;45.502;12.238;2023-03-01T02:43:04;8.80;79.20
38784;DHT22;24531;45.502;12.238;2023-03-01T02:45:34;8.80;78.90
38784;DHT22;24531;45.502;12.238;2023-03-01T02:48:00;8.80;79.00
38784;DHT22;24531;45.502;12.238;2023-03-01T02:53:00;8.80;78.90
38784;DHT22;24531;45.502;12.238;2023-03-01T02:55:32;8.80;78.90
38784;DHT22;24531;45.502;12.238;2023-03-01T02:58:02;8.80;78.90
38784;DHT22;24531;45.502;12.238;2023-03-01T03:00:36;8.70;78.90
38784;DHT22;24531;45.502;12.238;2023-03-01T03:03:06;8.70;79.60
38784;DHT22;24531;45.502;12.238;2023-03-01T03:05:32;9.00;79.10
38784;DHT22;24531;45.502;12.238;2023-03-01T03:08:00;8.60;78.90
38784;DHT22;24531;45.502;12.238;2023-03-01T03:10:32;8.70;79.10
38784;DHT22;24531;45.502;12.238;2023-03-01T03:13:04;8.70;79.10
38784;DHT22;24531;45.502;12.238;2023-03-01T03:15:33;8.60;78.90
38784;DHT22;24531;45.502;12.238;2023-03-01T03:18:03;8.70;79.10
38784;DHT22;24531;45.502;12.238;2023-03-01T03:20:29;8.60;79.10
38784;DHT22;24531;45.502;12.238;2023-03-01T03:22:58;8.60;79.10
38784;DHT22;24531;45.502;12.238;2023-03-01T03:25:25;8.60;79.30
38784;DHT22;24531;45.502;12.238;2023-03-01T03:27:52;9.70;79.90
38784;DHT22;24531;45.502;12.238;2023-03-01T03:30:27;8.60;79.30
38784;DHT22;24531;45.502;12.238;2023-03-01T03:32:58;8.60;79.70
38784;DHT22;24531;45.502;12.238;2023-03-01T03:35:28;8.50;79.30
38784;DHT22;24531;45.502;12.238;2023-03-01T03:37:56;8.60;79.60
38784;DHT22;24531;45.502;12.238;2023-03-01T03:40:32;8.60;79.40
38784;DHT22;24531;45.502;12.238;2023-03-01T03:42:58;8.70;79.60
38784;DHT22;24531;45.502;12.238;2023-03-01T03:45:27;9.10;79.50
38784;DHT22;24531;45.502;12.238;2023-03-01T03:47:52;8.70;79.80
38784;DHT22;24531;45.502;12.238;2023-03-01T03:50:18;8.70;79.30
38784;DHT22;24531;45.502;12.238;2023-03-01T03:52:44;8.70;79.60
38784;DHT22;24531;45.502;12.238;2023-03-01T03:55:11;9.40;79.70
38784;DHT22;24531;45.502;12.238;2023-03-01T03:57:38;8.70;79.30
38784;DHT22;24531;45.502;12.238;2023-03-01T04:00:06;8.80;79.30
38784;DHT22;24531;45.502;12.238;2023-03-01T04:02:41;8.90;79.30
38784;DHT22;24531;45.502;12.238;2023-03-01T04:05:08;8.80;79.20
38784;DHT22;24531;45.502;12.238;2023-03-01T04:07:35;8.90;79.30
38784;DHT22;24531;45.502;12.238;2023-03-01T04:10:03;8.90;79.20
38784;DHT22;24531;45.502;12.238;2023-03-01T04:12:29;8.90;79.10
38784;DHT22;24531;45.502;12.238;2023-03-01T04:14:54;8.90;79.20
38784;DHT22;24531;45.502;12.238;2023-03-01T04:17:23;8.90;79.20
38784;DHT22;24531;45.502;12.238;2023-03-01T04:19:49;8.90;79.10
38784;DHT22;24531;45.502;12.238;2023-03-01T04:22:15;9.00;79.30
38784;DHT22;24531;45.502;12.238;2023-03-01T04:24:44;9.00;79.60
38784;DHT22;24531;45.502;12.238;2023-03-01T04:27:10;9.00;79.20
38784;DHT22;24531;45.502;12.238;2023-03-01T04:29:36;9.00;79.00
38784;DHT22;24531;45.502;12.238;2023-03-01T04:32:01;9.10;79.30
38784;DHT22;24531;45.502;12.238;2023-03-01T04:34:28;9.10;79.00
38784;DHT22;24531;45.502;12.238;2023-03-01T04:36:54;9.10;79.10
38784;DHT22;24531;45.502;12.238;2023-03-01T04:39:20;10.30;79.90
38784;DHT22;24531;45.502;12.238;2023-03-01T04:41:46;9.20;79.10
38784;DHT22;24531;45.502;12.238;2023-03-01T04:44:12;9.20;79.00
38784;DHT22;24531;45.502;12.238;2023-03-01T04:46:38;9.20;79.10
38784;DHT22;24531;45.502;12.238;2023-03-01T04:49:04;9.20;79.00
38784;DHT22;24531;45.502;12.238;2023-03-01T04:51:31;9.30;79.10
38784;DHT22;24531;45.502;12.238;2023-03-01T04:53:58;9.20;79.00
38784;DHT22;24531;45.502;12.238;2023-03-01T04:56:46;9.40;79.30
38784;DHT22;24531;45.502;12.238;2023-03-01T04:59:11;9.30;79.20
38784;DHT22;24531;45.502;12.238;2023-03-01T05:01:38;9.30;79.10
38784;DHT22;24531;45.502;12.238;2023-03-01T05:04:04;9.30;79.10
38784;DHT22;24531;45.502;12.238;2023-03-01T05:06:31;9.30;79.10
38784;DHT22;24531;45.502;12.238;2023-03-01T05:08:56;9.30;79.10
38784;DHT22;24531;45.502;12.238;2023-03-01T05:11:22;9.90;79.40
38784;DHT22;24531;45.502;12.238;2023-03-01T05:13:48;9.30;79.10
38784;DHT22;24531;45.502;12.238;2023-03-01T05:16:15;9.40;79.10
38784;DHT22;24531;45.502;12.238;2023-03-01T05:18:42;9.30;79.00
38784;DHT22;24531;45.502;12.238;2023-03-01T05:21:13;9.40;79.10
38784;DHT22;24531;45.502;12.238;2023-03-01T05:23:41;9.40;79.00
38784;DHT22;24531;45.502;12.238;2023-03-01T05:26:07;9.40;79.10
38784;DHT22;24531;45.502;12.238;2023-03-01T05:28:33;9.40;79.30
38784;DHT22;24531;45.502;12.238;2023-03-01T05:30:59;9.40;79.20
38784;DHT22;24531;45.502;12.238;2023-03-01T05:33:25;9.40;79.00
38784;DHT22;24531;45.502;12.238;2023-03-01T05:35:51;9.40;79.20
38784;DHT22;24531;45.502;12.238;2023-03-01T05:38:18;9.40;79.10
38784;DHT22;24531;45.502;12.238;2023-03-01T05:40:46;9.40;80.00
38784;DHT22;24531;45.502;12.238;2023-03-01T05:43:14;9.40;79.30
38784;DHT22;24531;45.502;12.238;2023-03-01T05:45:41;9.40;79.20
38784;DHT22;24531;45.502;12.238;2023-03-01T05:48:08;9.40;79.30
38784;DHT22;24531;45.502;12.238;2023-03-01T05:50:37;9.40;79.40
38784;DHT22;24531;45.502;12.238;2023-03-01T05:53:10;9.40;79.40
38784;DHT22;24531;45.502;12.238;2023-03-01T05:55:36;9.40;79.30
38784;DHT22;24531;45.502;12.238;2023-03-01T05:58:04;9.40;79.40
38784;DHT22;24531;45.502;12.238;2023-03-01T06:00:31;9.40;79.50
38784;DHT22;24531;45.502;12.238;2023-03-01T06:02:58;9.40;79.70
38784;DHT22;24531;45.502;12.238;2023-03-01T06:05:24;9.50;79.80
38784;DHT22;24531;45.502;12.238;2023-03-01T06:07:50;9.50;79.80
38784;DHT22;24531;45.502;12.238;2023-03-01T06:10:17;9.50;79.90
38784;DHT22;24531;45.502;12.238;2023-03-01T06:12:43;9.50;79.80
38784;DHT22;24531;45.502;12.238;2023-03-01T06:15:14;9.50;79.90
38784;DHT22;24531;45.502;12.238;2023-03-01T06:17:42;9.60;80.00
38784;DHT22;24531;45.502;12.238;2023-03-01T06:20:11;9.60;80.10
38784;DHT22;24531;45.502;12.238;2023-03-01T06:22:37;9.60;80.00
38784;DHT22;24531;45.502;12.238;2023-03-01T06:25:04;9.70;80.20
38784;DHT22;24531;45.502;12.238;2023-03-01T06:27:30;9.60;79.70
38784;DHT22;24531;45.502;12.238;2023-03-01T06:29:55;9.60;79.80
38784;DHT22;24531;45.502;12.238;2023-03-01T06:32:21;9.60;79.80
38784;DHT22;24531;45.502;12.238;2023-03-01T06:34:46;9.70;80.00
38784;DHT22;24531;45.502;12.238;2023-03-01T06:37:12;9.70;79.80
38784;DHT22;24531;45.502;12.238;2023-03-01T06:52:55;10.40;80.00
38784;DHT22;24531;45.502;12.238;2023-03-01T07:01:41;10.80;80.00
38784;DHT22;24531;45.502;12.238;2023-03-01T07:04:13;10.00;80.10
38784;DHT22;24531;45.502;12.238;2023-03-01T07:13:19;8.80;78.50
38784;DHT22;24531;45.502;12.238;2023-03-01T07:47:18;10.00;78.00
38784;DHT22;24531;45.502;12.238;2023-03-01T07:49:44;9.30;78.40
38784;DHT22;24531;45.502;12.238;2023-03-01T07:55:09;8.90;78.20
38784;DHT22;24531;45.502;12.238;2023-03-01T07:57:34;10.70;78.10
38784;DHT22;24531;45.502;12.238;2023-03-01T08:00:00;10.70;78.80
38784;DHT22;24531;45.502;12.238;2023-03-01T08:02:25;10.70;78.10
38784;DHT22;24531;45.502;12.238;2023-03-01T08:04:51;10.70;78.00
38784;DHT22;24531;45.502;12.238;2023-03-01T08:07:17;10.80;78.00
38784;DHT22;24531;45.502;12.238;2023-03-01T08:09:42;10.80;77.80
38784;DHT22;24531;45.502;12.238;2023-03-01T08:12:08;10.80;77.80
38784;DHT22;24531;45.502;12.238;2023-03-01T08:14:33;10.80;77.80
38784;DHT22;24531;45.502;12.238;2023-03-01T08:16:59;10.80;77.70
38784;DHT22;24531;45.502;12.238;2023-03-01T08:19:25;10.80;77.70
38784;DHT22;24531;45.502;12.238;2023-03-01T08:21:50;10.90;77.80
38784;DHT22;24531;45.502;12.238;2023-03-01T08:24:16;10.90;77.80
38784;DHT22;24531;45.502;12.238;2023-03-01T08:26:41;10.90;77.60
38784;DHT22;24531;45.502;12.238;2023-03-01T08:29:07;10.90;77.80
38784;DHT22;24531;45.502;12.238;2023-03-01T08:31:36;10.90;77.60
38784;DHT22;24531;45.502;12.238;2023-03-01T08:34:04;11.00;77.70
38784;DHT22;24531;45.502;12.238;2023-03-01T08:36:34;11.10;77.60
38784;DHT22;24531;45.502;12.238;2023-03-01T08:39:00;11.20;77.60
38784;DHT22;24531;45.502;12.238;2023-03-01T08:41:26;11.60;78.10
38784;DHT22;24531;45.502;12.238;2023-03-01T08:43:52;12.40;77.80
38784;DHT22;24531;45.502;12.238;2023-03-01T08:46:27;13.20;77.20
38784;DHT22;24531;45.502;12.238;2023-03-01T08:48:54;13.70;75.60
38784;DHT22;24531;45.502;12.238;2023-03-01T08:51:21;14.00;74.60
38784;DHT22;24531;45.502;12.238;2023-03-01T08:53:47;14.10;74.20
38784;DHT22;24531;45.502;12.238;2023-03-01T08:56:14;14.20;73.80
38784;DHT22;24531;45.502;12.238;2023-03-01T08:58:43;14.30;73.70
38784;DHT22;24531;45.502;12.238;2023-03-01T09:01:10;14.30;72.90
38784;DHT22;24531;45.502;12.238;2023-03-01T09:03:36;14.10;71.80
38784;DHT22;24531;45.502;12.238;2023-03-01T09:06:03;13.80;71.80
38784;DHT22;24531;45.502;12.238;2023-03-01T09:08:30;13.70;72.30
38784;DHT22;24531;45.502;12.238;2023-03-01T09:10:56;13.70;72.50
38784;DHT22;24531;45.502;12.238;2023-03-01T09:13:22;13.90;72.50
38784;DHT22;24531;45.502;12.238;2023-03-01T09:15:51;14.00;72.50
38784;DHT22;24531;45.502;12.238;2023-03-01T09:18:17;14.00;72.30
38784;DHT22;24531;45.502;12.238;2023-03-01T09:20:42;13.90;71.70
38784;DHT22;24531;45.502;12.238;2023-03-01T09:23:08;13.80;72.10
38784;DHT22;24531;45.502;12.238;2023-03-01T09:25:45;13.70;72.30
38784;DHT22;24531;45.502;12.238;2023-03-01T09:28:43;13.70;72.50
38784;DHT22;24531;45.502;12.238;2023-03-01T09:31:20;13.70;72.50
38784;DHT22;24531;45.502;12.238;2023-03-01T09:34:36;13.60;72.30
38784;DHT22;24531;45.502;12.238;2023-03-01T09:37:21;13.40;72.00
38784;DHT22;24531;45.502;12.238;2023-03-01T09:39:50;13.30;72.40
38784;DHT22;24531;45.502;12.238;2023-03-01T09:42:15;13.50;73.30
38784;DHT22;24531;45.502;12.238;2023-03-01T09:45:06;14.20;73.70
38784;DHT22;24531;45.502;12.238;2023-03-01T09:47:34;15.00;72.40
38784;DHT22;24531;45.502;12.238;2023-03-01T09:50:16;15.30;70.60
38784;DHT22;24531;45.502;12.238;2023-03-01T09:53:04;15.20;70.30
38784;DHT22;24531;45.502;12.238;2023-03-01T10:01:30;14.00;70.00
38784;DHT22;24531;45.502;12.238;2023-03-01T10:04:04;13.70;70.30
38784;DHT22;24531;45.502;12.238;2023-03-01T10:06:32;13.50;70.70
38784;DHT22;24531;45.502;12.238;2023-03-01T10:09:02;13.30;70.90
38784;DHT22;24531;45.502;12.238;2023-03-01T10:11:37;13.10;71.10
38784;DHT22;24531;45.502;12.238;2023-03-01T10:14:09;13.10;72.40
38784;DHT22;24531;45.502;12.238;2023-03-01T10:16:54;13.00;71.90
38784;DHT22;24531;45.502;12.238;2023-03-01T10:22:10;12.90;72.30
38784;DHT22;24531;45.502;12.238;2023-03-01T10:24:36;12.90;72.10
38784;DHT22;24531;45.502;12.238;2023-03-01T10:27:23;12.70;72.20
38784;DHT22;24531;45.502;12.238;2023-03-01T10:29:56;12.70;72.70
38784;DHT22;24531;45.502;12.238;2023-03-01T10:32:24;12.70;73.00
38784;DHT22;24531;45.502;12.238;2023-03-01T10:34:50;12.70;73.40
38784;DHT22;24531;45.502;12.238;2023-03-01T10:37:17;12.60;73.50
38784;DHT22;24531;45.502;12.238;2023-03-01T10:40:08;12.50;73.30
38784;DHT22;24531;45.502;12.238;2023-03-01T10:42:38;12.50;74.10
38784;DHT22;24531;45.502;12.238;2023-03-01T10:45:29;12.50;73.30
38784;DHT22;24531;45.502;12.238;2023-03-01T10:48:16;12.50;73.60
38784;DHT22;24531;45.502;12.238;2023-03-01T10:50:45;12.50;73.80
38784;DHT22;24531;45.502;12.238;2023-03-01T10:53:22;12.60;73.80
38784;DHT22;24531;45.502;12.238;2023-03-01T10:56:01;12.60;74.20
38784;DHT22;24531;45.502;12.238;2023-03-01T10:58:28;12.60;74.20
38784;DHT22;24531;45.502;12.238;2023-03-01T11:00:55;12.60;74.30
38784;DHT22;24531;45.502;12.238;2023-03-01T11:03:30;12.60;74.30
38784;DHT22;24531;45.502;12.238;2023-03-01T11:08:44;12.60;73.80
38784;DHT22;24531;45.502;12.238;2023-03-01T11:13:51;12.40;74.30
38784;DHT22;24531;45.502;12.238;2023-03-01T11:16:27;12.40;75.40
38784;DHT22;24531;45.502;12.238;2023-03-01T11:19:20;12.30;74.80
38784;DHT22;24531;45.502;12.238;2023-03-01T11:22:16;12.30;74.90
38784;DHT22;24531;45.502;12.238;2023-03-01T11:24:46;12.20;74.90
38784;DHT22;24531;45.502;12.238;2023-03-01T11:27:32;12.20;75.10
38784;DHT22;24531;45.502;12.238;2023-03-01T11:30:05;12.10;75.10
38784;DHT22;24531;45.502;12.238;2023-03-01T11:35:41;12.10;75.40
38784;DHT22;24531;45.502;12.238;2023-03-01T11:38:23;12.10;75.50
38784;DHT22;24531;45.502;12.238;2023-03-01T11:41:15;12.10;75.80
38784;DHT22;24531;45.502;12.238;2023-03-01T11:49:52;12.10;75.70
38784;DHT22;24531;45.502;12.238;2023-03-01T11:52:28;12.10;75.60
38784;DHT22;24531;45.502;12.238;2023-03-01T12:06:06;11.80;76.90
38784;DHT22;24531;45.502;12.238;2023-03-01T12:08:42;11.80;76.90
38784;DHT22;24531;45.502;12.238;2023-03-01T12:11:16;11.80;76.90
38784;DHT22;24531;45.502;12.238;2023-03-01T12:21:44;11.70;77.30
38784;DHT22;24531;45.502;12.238;2023-03-01T12:24:36;11.70;77.60
38784;DHT22;24531;45.502;12.238;2023-03-01T12:27:30;11.70;77.70
38784;DHT22;24531;45.502;12.238;2023-03-01T12:38:42;11.60;78.30
38784;DHT22;24531;45.502;12.238;2023-03-01T12:44:10;11.70;78.20
38784;DHT22;24531;45.502;12.238;2023-03-01T12:46:49;11.70;78.20
38784;DHT22;24531;45.502;12.238;2023-03-01T12:49:34;11.70;78.10
38784;DHT22;24531;45.502;12.238;2023-03-01T12:52:12;11.70;78.10
38784;DHT22;24531;45.502;12.238;2023-03-01T12:54:39;11.70;78.00
38784;DHT22;24531;45.502;12.238;2023-03-01T12:57:41;11.80;78.00
38784;DHT22;24531;45.502;12.238;2023-03-01T13:02:54;11.80;78.00
38784;DHT22;24531;45.502;12.238;2023-03-01T13:08:54;11.80;77.80
38784;DHT22;24531;45.502;12.238;2023-03-01T13:11:22;11.70;77.60
38784;DHT22;24531;45.502;12.238;2023-03-01T13:13:49;11.70;77.80
38784;DHT22;24531;45.502;12.238;2023-03-01T13:21:40;11.60;78.00
38784;DHT22;24531;45.502;12.238;2023-03-01T13:29:47;11.70;78.50
38784;DHT22;24531;45.502;12.238;2023-03-01T13:32:44;11.70;78.40
38784;DHT22;24531;45.502;12.238;2023-03-01T13:37:42;11.80;78.50
38784;DHT22;24531;45.502;12.238;2023-03-01T13:42:51;11.70;78.50
38784;DHT22;24531;45.502;12.238;2023-03-01T13:45:39;11.80;78.50
38784;DHT22;24531;45.502;12.238;2023-03-01T13:48:15;11.80;78.60
38784;DHT22;24531;45.502;12.238;2023-03-01T13:51:04;11.80;78.60
38784;DHT22;24531;45.502;12.238;2023-03-01T13:53:34;11.80;78.90
38784;DHT22;24531;45.502;12.238;2023-03-01T13:56:12;11.80;78.90
38784;DHT22;24531;45.502;12.238;2023-03-01T13:59:05;11.80;78.90
38784;DHT22;24531;45.502;12.238;2023-03-01T14:01:34;11.80;79.20
38784;DHT22;24531;45.502;12.238;2023-03-01T14:04:01;11.80;79.50
38784;DHT22;24531;45.502;12.238;2023-03-01T14:06:29;11.80;79.90
38784;DHT22;24531;45.502;12.238;2023-03-01T14:09:15;11.80;80.20
38784;DHT22;24531;45.502;12.238;2023-03-01T14:12:05;11.80;80.70
38784;DHT22;24531;45.502;12.238;2023-03-01T14:14:34;11.80;80.80
38784;DHT22;24531;45.502;12.238;2023-03-01T14:19:53;11.80;81.10
38784;DHT22;24531;45.502;12.238;2023-03-01T14:22:41;11.80;81.30
38784;DHT22;24531;45.502;12.238;2023-03-01T14:25:31;11.80;81.30
38784;DHT22;24531;45.502;12.238;2023-03-01T14:28:01;11.80;81.10
38784;DHT22;24531;45.502;12.238;2023-03-01T14:30:38;11.80;81.10
38784;DHT22;24531;45.502;12.238;2023-03-01T14:33:06;11.90;81.20
38784;DHT22;24531;45.502;12.238;2023-03-01T14:35:42;11.90;81.00
38784;DHT22;24531;45.502;12.238;2023-03-01T14:39:15;11.90;80.90
38784;DHT22;24531;45.502;12.238;2023-03-01T14:41:18;11.90;80.70
38784;DHT22;24531;45.502;12.238;2023-03-01T14:43:47;11.90;80.90
38784;DHT22;24531;45.502;12.238;2023-03-01T14:49:21;11.90;80.60
38784;DHT22;24531;45.502;12.238;2023-03-01T14:52:04;11.90;80.30
38784;DHT22;24531;45.502;12.238;2023-03-01T14:54:49;11.90;81.20
38784;DHT22;24531;45.502;12.238;2023-03-01T14:57:19;11.90;80.30
38784;DHT22;24531;45.502;12.238;2023-03-01T14:59:45;12.00;80.40
38784;DHT22;24531;45.502;12.238;2023-03-01T15:02:16;11.90;80.60
38784;DHT22;24531;45.502;12.238;2023-03-01T15:04:46;11.90;80.70
38784;DHT22;24531;45.502;12.238;2023-03-01T15:07:13;11.80;81.10
38784;DHT22;24531;45.502;12.238;2023-03-01T15:09:40;11.80;81.30
38784;DHT22;24531;45.502;12.238;2023-03-01T15:14:57;11.70;81.60
38784;DHT22;24531;45.502;12.238;2023-03-01T15:17:37;11.70;81.70
38784;DHT22;24531;45.502;12.238;2023-03-01T15:20:07;11.70;82.00
38784;DHT22;24531;45.502;12.238;2023-03-01T15:22:32;11.70;82.30
38784;DHT22;24531;45.502;12.238;2023-03-01T15:24:58;11.70;82.50
38784;DHT22;24531;45.502;12.238;2023-03-01T15:27:27;11.60;82.80
38784;DHT22;24531;45.502;12.238;2023-03-01T15:29:58;11.60;83.20
38784;DHT22;24531;45.502;12.238;2023-03-01T15:32:30;11.40;83.80
38784;DHT22;24531;45.502;12.238;2023-03-01T15:34:58;11.40;84.10
38784;DHT22;24531;45.502;12.238;2023-03-01T15:37:46;11.30;84.50
38784;DHT22;24531;45.502;12.238;2023-03-01T15:40:27;11.30;85.00
38784;DHT22;24531;45.502;12.238;2023-03-01T15:43:04;11.30;85.50
38784;DHT22;24531;45.502;12.238;2023-03-01T15:45:31;11.20;85.60
38784;DHT22;24531;45.502;12.238;2023-03-01T15:48:20;11.20;86.60
38784;DHT22;24531;45.502;12.238;2023-03-01T15:50:54;11.10;86.30
38784;DHT22;24531;45.502;12.238;2023-03-01T15:53:20;11.00;86.90
38784;DHT22;24531;45.502;12.238;2023-03-01T15:55:46;10.90;88.20
38784;DHT22;24531;45.502;12.238;2023-03-01T15:58:20;10.80;88.40
38784;DHT22;24531;45.502;12.238;2023-03-01T16:00:47;10.70;88.60
38784;DHT22;24531;45.502;12.238;2023-03-01T16:03:14;10.70;89.10
38784;DHT22;24531;45.502;12.238;2023-03-01T16:05:47;11.20;90.00
38784;DHT22;24531;45.502;12.238;2023-03-01T16:08:17;10.50;90.10
38784;DHT22;24531;45.502;12.238;2023-03-01T16:10:46;10.50;90.30
38784;DHT22;24531;45.502;12.238;2023-03-01T16:13:13;10.40;90.40
38784;DHT22;24531;45.502;12.238;2023-03-01T16:15:39;10.40;90.50
38784;DHT22;24531;45.502;12.238;2023-03-01T16:18:25;10.40;90.50
38784;DHT22;24531;45.502;12.238;2023-03-01T16:20:51;10.40;90.60
38784;DHT22;24531;45.502;12.238;2023-03-01T16:23:18;10.30;90.60
38784;DHT22;24531;45.502;12.238;2023-03-01T16:25:43;10.30;90.60
38784;DHT22;24531;45.502;12.238;2023-03-01T16:28:09;10.30;90.60
38784;DHT22;24531;45.502;12.238;2023-03-01T16:30:36;10.40;90.70
38784;DHT22;24531;45.502;12.238;2023-03-01T16:33:01;10.30;90.70
38784;DHT22;24531;45.502;12.238;2023-03-01T16:35:27;10.30;90.70
38784;DHT22;24531;45.502;12.238;2023-03-01T16:37:54;10.30;90.80
38784;DHT22;24531;45.502;12.238;2023-03-01T16:40:22;10.80;90.90
38784;DHT22;24531;45.502;12.238;2023-03-01T16:42:49;11.10;91.00
38784;DHT22;24531;45.502;12.238;2023-03-01T16:45:24;10.30;90.70
38784;DHT22;24531;45.502;12.238;2023-03-01T16:47:49;10.30;90.90
38784;DHT22;24531;45.502;12.238;2023-03-01T16:50:15;10.50;90.80
38784;DHT22;24531;45.502;12.238;2023-03-01T16:52:41;10.30;90.80
38784;DHT22;24531;45.502;12.238;2023-03-01T16:55:07;10.80;91.20
38784;DHT22;24531;45.502;12.238;2023-03-01T16:57:35;10.20;91.10
38784;DHT22;24531;45.502;12.238;2023-03-01T17:00:01;10.10;91.10
38784;DHT22;24531;45.502;12.238;2023-03-01T17:02:29;10.10;91.30
38784;DHT22;24531;45.502;12.238;2023-03-01T17:04:55;10.40;91.40
38784;DHT22;24531;45.502;12.238;2023-03-01T17:07:21;10.10;91.50
38784;DHT22;24531;45.502;12.238;2023-03-01T17:09:47;10.20;91.60
38784;DHT22;24531;45.502;12.238;2023-03-01T17:12:14;10.00;91.70
38784;DHT22;24531;45.502;12.238;2023-03-01T17:14:40;10.00;91.80
38784;DHT22;24531;45.502;12.238;2023-03-01T17:17:07;9.90;92.00
38784;DHT22;24531;45.502;12.238;2023-03-01T17:19:33;9.90;92.20
38784;DHT22;24531;45.502;12.238;2023-03-01T17:22:01;9.80;92.50
38784;DHT22;24531;45.502;12.238;2023-03-01T17:24:27;9.70;92.70
38784;DHT22;24531;45.502;12.238;2023-03-01T17:26:54;10.10;92.90
38784;DHT22;24531;45.502;12.238;2023-03-01T17:29:20;9.70;92.90
38784;DHT22;24531;45.502;12.238;2023-03-01T17:31:45;9.70;93.10
38784;DHT22;24531;45.502;12.238;2023-03-01T17:34:11;9.70;93.10
38784;DHT22;24531;45.502;12.238;2023-03-01T17:36:36;9.70;93.30
38784;DHT22;24531;45.502;12.238;2023-03-01T17:39:11;9.60;93.30
38784;DHT22;24531;45.502;12.238;2023-03-01T17:41:36;9.70;93.50
38784;DHT22;24531;45.502;12.238;2023-03-01T17:44:02;9.60;93.50
38784;DHT22;24531;45.502;12.238;2023-03-01T17:46:28;9.70;93.80
38784;DHT22;24531;45.502;12.238;2023-03-01T17:48:53;9.60;93.80
38784;DHT22;24531;45.502;12.238;2023-03-01T17:51:19;9.60;93.90
38784;DHT22;24531;45.502;12.238;2023-03-01T17:53:45;9.70;94.10
38784;DHT22;24531;45.502;12.238;2023-03-01T17:56:11;9.60;94.10
38784;DHT22;24531;45.502;12.238;2023-03-01T17:58:36;9.80;94.20
38784;DHT22;24531;45.502;12.238;2023-03-01T18:01:17;9.60;94.20
38784;DHT22;24531;45.502;12.238;2023-03-01T18:03:44;11.00;94.70
38784;DHT22;24531;45.502;12.238;2023-03-01T18:06:15;9.60;94.30
38784;DHT22;24531;45.502;12.238;2023-03-01T18:08:41;9.70;94.30
38784;DHT22;24531;45.502;12.238;2023-03-01T18:11:08;9.60;94.40
38784;DHT22;24531;45.502;12.238;2023-03-01T18:13:34;9.60;94.40
38784;DHT22;24531;45.502;12.238;2023-03-01T18:16:04;9.60;94.60
38784;DHT22;24531;45.502;12.238;2023-03-01T18:18:29;9.60;94.60
38784;DHT22;24531;45.502;12.238;2023-03-01T18:20:56;9.60;94.80
38784;DHT22;24531;45.502;12.238;2023-03-01T18:23:22;9.70;94.80